Terminal Aerodrome Forecast
Issued by NWS

Home | Current Version | Previous Version | Text Only | Print | Product List | Glossary On
Versions: 1 2 3 4 5 6 7 8 9 10 11 12 13 14 15 16 17 18 19 20
414
FTAK31 PAJN 070535
TAFAGY
TAF
PAGY 070535Z 0706/0806 21014KT P6SM BKN070
      TEMPO 0706/0710 21015G25KT
     FM071200 04008KT P6SM SCT050 BKN090
     FM071400 04015G25KT P6SM VCSH BKN040 OVC060
     FM072000 04010KT 5SM -SN BKN025 OVC040
     FM080300 04010KT 6SM -SN BKN015 OVC025
      AMD LTD TO CLD VIS AND WIND=

USA.gov is the U.S. government's official web portal to all federal, state and local government web resources and services.